createdAt,value
2016-12-22T00:00:03.920Z,931.95
2016-12-22T00:00:31.704Z,931.98
2016-12-22T00:00:59.489Z,931.98
2016-12-22T00:01:27.433Z,931.95
2016-12-22T00:01:55.321Z,931.96
2016-12-22T00:02:23.143Z,932
2016-12-22T00:02:50.932Z,931.99
2016-12-22T00:03:18.748Z,931.94
2016-12-22T00:03:46.587Z,931.95
2016-12-22T00:04:14.417Z,931.95
2016-12-22T00:04:42.269Z,931.93
2016-12-22T00:05:10.059Z,931.93
2016-12-22T00:05:37.920Z,931.89
2016-12-22T00:06:05.847Z,931.92
2016-12-22T00:06:33.659Z,931.89
2016-12-22T00:07:01.501Z,931.92
2016-12-22T00:07:29.324Z,931.9
2016-12-22T00:07:57.164Z,931.93
2016-12-22T00:08:25.003Z,931.94
2016-12-22T00:08:52.944Z,931.91
2016-12-22T00:09:20.794Z,931.93
2016-12-22T00:09:48.607Z,931.96
2016-12-22T00:10:16.421Z,931.96
2016-12-22T00:10:44.236Z,931.96
2016-12-22T00:11:12.158Z,931.98
2016-12-22T00:11:39.979Z,931.95
2016-12-22T00:12:07.763Z,931.99
2016-12-22T00:12:35.628Z,931.98
2016-12-22T00:13:03.419Z,931.95
2016-12-22T00:13:31.271Z,931.98
2016-12-22T00:13:59.119Z,931.98
2016-12-22T00:14:27.044Z,932.01
2016-12-22T00:14:54.945Z,932.01
2016-12-22T00:15:22.760Z,932.04
2016-12-22T00:15:50.550Z,932.01
2016-12-22T00:16:18.497Z,932.03
2016-12-22T00:16:46.341Z,932.01
2016-12-22T00:17:14.276Z,932.04
2016-12-22T00:17:42.163Z,932.08
2016-12-22T00:18:10.025Z,932.04
2016-12-22T00:18:37.862Z,932.05
2016-12-22T00:19:05.707Z,932.05
2016-12-22T00:19:33.607Z,932.08
2016-12-22T00:20:01.402Z,932.08
2016-12-22T00:20:29.177Z,932.05
2016-12-22T00:20:56.973Z,932.07
2016-12-22T00:21:24.792Z,932.1
2016-12-22T00:21:52.650Z,932.09
2016-12-22T00:22:20.478Z,932.09
2016-12-22T00:22:48.315Z,932.07
2016-12-22T00:23:16.119Z,932.07
2016-12-22T00:23:43.948Z,932.09
2016-12-22T00:24:11.780Z,932.07
2016-12-22T00:24:39.620Z,932.1
2016-12-22T00:25:07.432Z,932.09
2016-12-22T00:25:35.318Z,932.09
2016-12-22T00:26:03.261Z,932.08
2016-12-22T00:26:31.055Z,932.13
2016-12-22T00:26:58.869Z,932.09
2016-12-22T00:27:26.642Z,932.1
2016-12-22T00:27:54.457Z,932.11
2016-12-22T00:28:22.412Z,932.12
2016-12-22T00:28:50.271Z,932.1
2016-12-22T00:29:18.132Z,932.14
2016-12-22T00:29:45.964Z,932.15
2016-12-22T00:30:13.856Z,932.13
2016-12-22T00:30:41.664Z,932.17
2016-12-22T00:31:09.481Z,932.17
2016-12-22T00:31:37.311Z,932.14
2016-12-22T00:32:05.137Z,932.14
2016-12-22T00:32:33.017Z,932.15
2016-12-22T00:33:00.852Z,932.18
2016-12-22T00:33:28.783Z,932.21
2016-12-22T00:33:56.679Z,932.2
2016-12-22T00:34:24.545Z,932.23
2016-12-22T00:34:52.468Z,932.21
2016-12-22T00:35:20.265Z,932.24
2016-12-22T00:35:48.124Z,932.28
2016-12-22T00:36:16.466Z,932.23
2016-12-22T00:36:44.275Z,932.25
2016-12-22T00:37:12.154Z,932.25
2016-12-22T00:37:39.944Z,932.3
2016-12-22T00:38:07.821Z,932.3
2016-12-22T00:38:35.633Z,932.35
2016-12-22T00:39:03.612Z,932.38
2016-12-22T00:39:31.431Z,932.38
2016-12-22T00:39:59.282Z,932.38
2016-12-22T00:40:27.141Z,932.4
2016-12-22T00:40:54.998Z,932.4
2016-12-22T00:41:22.858Z,932.41
2016-12-22T00:41:50.841Z,932.42
2016-12-22T00:42:18.632Z,932.42
2016-12-22T00:42:46.458Z,932.43
2016-12-22T00:43:14.291Z,932.46
2016-12-22T00:43:42.195Z,932.45
2016-12-22T00:44:10.031Z,932.45
2016-12-22T00:44:37.825Z,932.45
2016-12-22T00:45:05.633Z,932.49
2016-12-22T00:45:33.429Z,932.5
2016-12-22T00:46:01.241Z,932.49
2016-12-22T00:46:29.027Z,932.52
2016-12-22T00:46:56.808Z,932.54
2016-12-22T00:47:24.754Z,932.55
2016-12-22T00:47:52.564Z,932.55
2016-12-22T00:48:20.382Z,932.58
2016-12-22T00:48:48.156Z,932.59
2016-12-22T00:49:16.081Z,932.57
2016-12-22T00:49:43.911Z,932.59
2016-12-22T00:50:11.772Z,932.61
2016-12-22T00:50:39.592Z,932.6
2016-12-22T00:51:07.387Z,932.61
2016-12-22T00:51:35.217Z,932.62
2016-12-22T00:52:03.142Z,932.64
2016-12-22T00:52:30.969Z,932.6
2016-12-22T00:52:58.799Z,932.64
2016-12-22T00:53:26.615Z,932.67
2016-12-22T00:53:54.425Z,932.68
2016-12-22T00:54:22.273Z,932.69
2016-12-22T00:54:50.107Z,932.68
2016-12-22T00:55:17.925Z,932.71
2016-12-22T00:55:45.866Z,932.69
2016-12-22T00:56:13.690Z,932.69
2016-12-22T00:56:41.492Z,932.7
2016-12-22T00:57:09.358Z,932.68
2016-12-22T00:57:37.190Z,932.71
2016-12-22T00:58:05.011Z,932.68
2016-12-22T00:58:32.811Z,932.68
2016-12-22T00:59:00.653Z,932.67
2016-12-22T00:59:28.605Z,932.72
2016-12-22T00:59:56.419Z,932.74
2016-12-22T01:00:24.284Z,932.76
2016-12-22T01:00:52.146Z,932.73
2016-12-22T01:01:20.033Z,932.71
2016-12-22T01:01:47.846Z,932.76
2016-12-22T01:02:15.732Z,932.74
2016-12-22T01:02:43.635Z,932.76
2016-12-22T01:03:11.505Z,932.75
2016-12-22T01:03:39.341Z,932.72
2016-12-22T01:04:07.183Z,932.73
2016-12-22T01:04:35.034Z,932.8
2016-12-22T01:05:02.866Z,932.77
2016-12-22T01:05:30.678Z,932.78
2016-12-22T01:05:58.615Z,932.79
2016-12-22T01:06:26.492Z,932.78
2016-12-22T01:06:54.342Z,932.81
2016-12-22T01:07:22.230Z,932.8
2016-12-22T01:07:50.107Z,932.8
2016-12-22T01:08:17.940Z,932.82
2016-12-22T01:08:45.790Z,932.8
2016-12-22T01:09:13.669Z,932.8
2016-12-22T01:09:41.558Z,932.83
2016-12-22T01:10:09.432Z,932.84
2016-12-22T01:10:37.259Z,932.83
2016-12-22T01:11:05.077Z,932.8
2016-12-22T01:11:32.855Z,932.79
2016-12-22T01:12:00.668Z,932.76
2016-12-22T01:12:28.521Z,932.8
2016-12-22T01:12:56.423Z,932.77
2016-12-22T01:13:24.260Z,932.76
2016-12-22T01:13:52.079Z,932.77
2016-12-22T01:14:19.930Z,932.75
2016-12-22T01:14:47.874Z,932.74
2016-12-22T01:15:15.740Z,932.73
2016-12-22T01:15:43.549Z,932.74
2016-12-22T01:16:11.440Z,932.73
2016-12-22T01:16:39.291Z,932.71
2016-12-22T01:17:07.089Z,932.72
2016-12-22T01:17:34.973Z,932.7
2016-12-22T01:18:02.849Z,932.72
2016-12-22T01:18:30.739Z,932.74
2016-12-22T01:18:58.516Z,932.71
2016-12-22T01:19:26.337Z,932.73
2016-12-22T01:19:54.297Z,932.7
2016-12-22T01:20:22.130Z,932.73
2016-12-22T01:20:50.066Z,932.73
2016-12-22T01:21:17.920Z,932.7
2016-12-22T01:21:45.743Z,932.7
2016-12-22T01:22:13.553Z,932.69
2016-12-22T01:22:41.373Z,932.69
2016-12-22T01:23:09.203Z,932.7
2016-12-22T01:23:37.045Z,932.7
2016-12-22T01:24:04.859Z,932.7
2016-12-22T01:24:32.813Z,932.72
2016-12-22T01:25:00.646Z,932.74
2016-12-22T01:25:28.511Z,932.74
2016-12-22T01:25:56.399Z,932.72
2016-12-22T01:26:24.329Z,932.74
2016-12-22T01:26:52.220Z,932.73
2016-12-22T01:27:20.002Z,932.71
2016-12-22T01:27:47.836Z,932.75
2016-12-22T01:28:15.661Z,932.75
2016-12-22T01:28:43.535Z,932.74
2016-12-22T01:29:11.382Z,932.73
2016-12-22T01:29:39.215Z,932.74
2016-12-22T01:30:07.103Z,932.75
2016-12-22T01:30:35.009Z,932.72
2016-12-22T01:31:02.804Z,932.73
2016-12-22T01:31:30.633Z,932.76
2016-12-22T01:31:58.458Z,932.76
2016-12-22T01:32:26.277Z,932.76
2016-12-22T01:32:54.122Z,932.77
2016-12-22T01:33:21.971Z,932.78
2016-12-22T01:33:49.844Z,932.8
2016-12-22T01:34:17.695Z,932.81
2016-12-22T01:34:45.582Z,932.78
2016-12-22T01:35:13.382Z,932.79
2016-12-22T01:35:41.234Z,932.77
2016-12-22T01:36:09.115Z,932.75
2016-12-22T01:36:36.956Z,932.79
2016-12-22T01:37:04.794Z,932.75
2016-12-22T01:37:32.628Z,932.78
2016-12-22T01:38:00.410Z,932.75
2016-12-22T01:38:28.275Z,932.82
2016-12-22T01:38:56.207Z,932.81
2016-12-22T01:39:23.993Z,932.77
2016-12-22T01:39:51.827Z,932.76
2016-12-22T01:40:19.675Z,932.77
2016-12-22T01:40:47.525Z,932.71
2016-12-22T01:41:15.341Z,932.74
2016-12-22T01:41:43.160Z,932.74
2016-12-22T01:42:10.977Z,932.73
2016-12-22T01:42:38.818Z,932.73
2016-12-22T01:43:06.673Z,932.73
2016-12-22T01:43:34.473Z,932.71
2016-12-22T01:44:02.279Z,932.73
2016-12-22T01:44:30.097Z,932.7
2016-12-22T01:44:57.915Z,932.68
2016-12-22T01:45:25.699Z,932.65
2016-12-22T01:45:53.555Z,932.67
2016-12-22T01:46:21.407Z,932.65
2016-12-22T01:46:49.239Z,932.67
2016-12-22T01:47:17.100Z,932.69
2016-12-22T01:47:44.850Z,932.7
2016-12-22T01:48:12.775Z,932.72
2016-12-22T01:48:40.532Z,932.72
2016-12-22T01:49:08.420Z,932.68
2016-12-22T01:49:36.219Z,932.68
2016-12-22T01:50:04.072Z,932.67
2016-12-22T01:50:31.919Z,932.68
2016-12-22T01:50:59.749Z,932.68
2016-12-22T01:51:27.604Z,932.68
2016-12-22T01:51:55.414Z,932.7
2016-12-22T01:52:23.245Z,932.68
2016-12-22T01:52:51.061Z,932.66
2016-12-22T01:53:18.949Z,932.67
2016-12-22T01:53:46.850Z,932.69
2016-12-22T01:54:14.824Z,932.69
2016-12-22T01:54:42.672Z,932.65
2016-12-22T01:55:10.557Z,932.66
2016-12-22T01:55:38.528Z,932.66
2016-12-22T01:56:06.317Z,932.67
2016-12-22T01:56:34.126Z,932.64
2016-12-22T01:57:01.950Z,932.64
2016-12-22T01:57:29.756Z,932.61
2016-12-22T01:57:57.598Z,932.61
2016-12-22T01:58:25.644Z,932.62
2016-12-22T01:58:53.463Z,932.62
2016-12-22T01:59:21.267Z,932.62
2016-12-22T01:59:49.121Z,932.62
2016-12-22T02:00:16.966Z,932.61
2016-12-22T02:00:44.832Z,932.63
2016-12-22T02:01:12.757Z,932.6
2016-12-22T02:01:40.566Z,932.63
2016-12-22T02:02:08.522Z,932.64
2016-12-22T02:02:36.345Z,932.65
2016-12-22T02:03:04.324Z,932.64
2016-12-22T02:03:32.261Z,932.61
2016-12-22T02:04:00.098Z,932.64
2016-12-22T02:04:27.915Z,932.64
2016-12-22T02:04:55.715Z,932.6
2016-12-22T02:05:23.579Z,932.61
2016-12-22T02:05:51.389Z,932.6
2016-12-22T02:06:19.230Z,932.6
2016-12-22T02:06:47.080Z,932.63
2016-12-22T02:07:14.880Z,932.57
2016-12-22T02:07:42.725Z,932.6
2016-12-22T02:08:10.655Z,932.6
2016-12-22T02:08:38.472Z,932.61
2016-12-22T02:09:06.321Z,932.57
2016-12-22T02:09:34.127Z,932.64
2016-12-22T02:10:01.935Z,932.57
2016-12-22T02:10:29.858Z,932.58
2016-12-22T02:10:57.721Z,932.6
2016-12-22T02:11:25.571Z,932.59
2016-12-22T02:11:53.401Z,932.58
2016-12-22T02:12:21.248Z,932.56
2016-12-22T02:12:49.084Z,932.53
2016-12-22T02:13:17.000Z,932.54
2016-12-22T02:13:44.809Z,932.57
2016-12-22T02:14:12.720Z,932.55
2016-12-22T02:14:40.573Z,932.56
2016-12-22T02:15:08.435Z,932.57
2016-12-22T02:15:36.270Z,932.59
2016-12-22T02:16:04.159Z,932.59
2016-12-22T02:16:31.941Z,932.57
2016-12-22T02:16:59.768Z,932.56
2016-12-22T02:17:27.593Z,932.55
2016-12-22T02:17:55.386Z,932.55
2016-12-22T02:18:23.383Z,932.55
2016-12-22T02:18:51.268Z,932.53
2016-12-22T02:19:19.102Z,932.5
2016-12-22T02:19:46.920Z,932.51
2016-12-22T02:20:14.799Z,932.5
2016-12-22T02:20:42.601Z,932.47
2016-12-22T02:21:10.464Z,932.47
2016-12-22T02:21:38.318Z,932.45
2016-12-22T02:22:06.166Z,932.42
2016-12-22T02:22:34.030Z,932.44
2016-12-22T02:23:01.861Z,932.47
2016-12-22T02:23:29.788Z,932.45
2016-12-22T02:23:57.619Z,932.45
2016-12-22T02:24:25.404Z,932.44
2016-12-22T02:24:53.243Z,932.47
2016-12-22T02:25:21.092Z,932.44
2016-12-22T02:25:48.896Z,932.44
2016-12-22T02:26:16.723Z,932.48
2016-12-22T02:26:44.566Z,932.49
2016-12-22T02:27:12.384Z,932.5
2016-12-22T02:27:40.222Z,932.49
2016-12-22T02:28:08.028Z,932.49
2016-12-22T02:28:35.935Z,932.5
2016-12-22T02:29:03.707Z,932.47
2016-12-22T02:29:31.550Z,932.48
2016-12-22T02:29:59.338Z,932.47
2016-12-22T02:30:27.192Z,932.46
2016-12-22T02:30:55.020Z,932.48
2016-12-22T02:31:22.939Z,932.51
2016-12-22T02:31:50.764Z,932.49
2016-12-22T02:32:18.616Z,932.49
2016-12-22T02:32:46.466Z,932.46
2016-12-22T02:33:14.284Z,932.44
2016-12-22T02:33:42.210Z,932.41
2016-12-22T02:34:10.071Z,932.46
2016-12-22T02:34:37.912Z,932.43
2016-12-22T02:35:05.739Z,932.43
2016-12-22T02:35:33.547Z,932.42
2016-12-22T02:36:01.466Z,932.44
2016-12-22T02:36:29.308Z,932.43
2016-12-22T02:36:57.255Z,932.37
2016-12-22T02:37:25.125Z,932.36
2016-12-22T02:37:52.973Z,932.35
2016-12-22T02:38:20.814Z,932.34
2016-12-22T02:38:48.770Z,932.35
2016-12-22T02:39:16.592Z,932.32
2016-12-22T02:39:44.426Z,932.31
2016-12-22T02:40:12.241Z,932.34
2016-12-22T02:40:40.092Z,932.33
2016-12-22T02:41:07.899Z,932.33
2016-12-22T02:41:35.744Z,932.34
2016-12-22T02:42:03.588Z,932.33
2016-12-22T02:42:31.471Z,932.34
2016-12-22T02:42:59.251Z,932.35
2016-12-22T02:43:27.169Z,932.3
2016-12-22T02:43:54.990Z,932.31
2016-12-22T02:44:22.805Z,932.3
2016-12-22T02:44:50.615Z,932.29
2016-12-22T02:45:18.424Z,932.28
2016-12-22T02:45:46.249Z,932.29
2016-12-22T02:46:14.088Z,932.27
2016-12-22T02:46:41.904Z,932.29
2016-12-22T02:47:09.735Z,932.28
2016-12-22T02:47:37.558Z,932.3
2016-12-22T02:48:05.373Z,932.28
2016-12-22T02:48:33.239Z,932.2
2016-12-22T02:49:01.064Z,932.26
2016-12-22T02:49:28.887Z,932.24
2016-12-22T02:49:56.732Z,932.24
2016-12-22T02:50:24.562Z,932.24
2016-12-22T02:50:52.352Z,932.25
2016-12-22T02:51:20.202Z,932.23
2016-12-22T02:51:48.075Z,932.2
2016-12-22T02:52:15.929Z,932.18
2016-12-22T02:52:43.718Z,932.2
2016-12-22T02:53:11.579Z,932.21
2016-12-22T02:53:39.538Z,932.22
2016-12-22T02:54:07.347Z,932.19
2016-12-22T02:54:35.229Z,932.2
2016-12-22T02:55:03.042Z,932.18
2016-12-22T02:55:30.850Z,932.18
2016-12-22T02:55:58.684Z,932.22
2016-12-22T02:56:26.539Z,932.2
2016-12-22T02:56:54.358Z,932.23
2016-12-22T02:57:22.184Z,932.24
2016-12-22T02:57:50.056Z,932.24
2016-12-22T02:58:17.872Z,932.25
2016-12-22T02:58:45.894Z,932.3
2016-12-22T02:59:13.743Z,932.29
2016-12-22T02:59:41.567Z,932.31
2016-12-22T03:00:09.417Z,932.31
2016-12-22T03:00:37.231Z,932.31
2016-12-22T03:01:05.049Z,932.33
2016-12-22T03:01:32.885Z,932.3
2016-12-22T03:02:00.794Z,932.34
2016-12-22T03:02:28.631Z,932.32
2016-12-22T03:02:56.460Z,932.33
2016-12-22T03:03:24.247Z,932.29
2016-12-22T03:03:52.191Z,932.33
2016-12-22T03:04:20.078Z,932.32
2016-12-22T03:04:47.882Z,932.33
2016-12-22T03:05:15.701Z,932.32
2016-12-22T03:05:43.527Z,932.32
2016-12-22T03:06:11.387Z,932.32
2016-12-22T03:06:39.257Z,932.33
2016-12-22T03:07:07.123Z,932.31
2016-12-22T03:07:35.032Z,932.32
2016-12-22T03:08:02.853Z,932.34
2016-12-22T03:08:30.708Z,932.31
2016-12-22T03:08:58.630Z,932.32
2016-12-22T03:09:26.438Z,932.34
2016-12-22T03:09:54.255Z,932.36
2016-12-22T03:10:22.095Z,932.34
2016-12-22T03:10:49.941Z,932.36
2016-12-22T03:11:17.791Z,932.31
2016-12-22T03:11:45.690Z,932.37
2016-12-22T03:12:13.508Z,932.33
2016-12-22T03:12:41.408Z,932.33
2016-12-22T03:13:09.232Z,932.29
2016-12-22T03:13:37.068Z,932.28
2016-12-22T03:14:04.974Z,932.26
2016-12-22T03:14:32.836Z,932.26
2016-12-22T03:15:00.697Z,932.3
2016-12-22T03:15:28.509Z,932.23
2016-12-22T03:15:56.338Z,932.2
2016-12-22T03:16:24.177Z,932.17
2016-12-22T03:16:51.999Z,932.18
2016-12-22T03:17:19.782Z,932.19
2016-12-22T03:17:47.553Z,932.19
2016-12-22T03:18:15.444Z,932.18
2016-12-22T03:18:43.237Z,932.18
2016-12-22T03:19:11.183Z,932.18
2016-12-22T03:19:39.001Z,932.19
2016-12-22T03:20:06.813Z,932.18
2016-12-22T03:20:34.629Z,932.15
2016-12-22T03:21:02.446Z,932.2
2016-12-22T03:21:30.308Z,932.15
2016-12-22T03:21:58.111Z,932.14
2016-12-22T03:22:25.953Z,932.13
2016-12-22T03:22:53.751Z,932.17
2016-12-22T03:23:21.542Z,932.2
2016-12-22T03:23:49.368Z,932.15
2016-12-22T03:24:17.309Z,932.15
2016-12-22T03:24:45.124Z,932.17
2016-12-22T03:25:13.028Z,932.17
2016-12-22T03:25:40.966Z,932.18
2016-12-22T03:26:08.804Z,932.16
2016-12-22T03:26:36.643Z,932.18
2016-12-22T03:27:04.470Z,932.15
2016-12-22T03:27:32.311Z,932.21
2016-12-22T03:28:00.218Z,932.18
2016-12-22T03:28:28.121Z,932.19
2016-12-22T03:28:55.904Z,932.13
2016-12-22T03:29:23.868Z,932.17
2016-12-22T03:29:51.728Z,932.15
2016-12-22T03:30:19.563Z,932.19
2016-12-22T03:30:47.401Z,932.18
2016-12-22T03:31:15.249Z,932.16
2016-12-22T03:31:43.050Z,932.2
2016-12-22T03:32:10.930Z,932.21
2016-12-22T03:32:38.824Z,932.18
2016-12-22T03:33:06.675Z,932.21
2016-12-22T03:33:34.510Z,932.22
2016-12-22T03:34:02.404Z,932.23
2016-12-22T03:34:30.219Z,932.2
2016-12-22T03:34:58.070Z,932.2
2016-12-22T03:35:25.905Z,932.2
2016-12-22T03:35:53.745Z,932.19
2016-12-22T03:36:21.582Z,932.17
2016-12-22T03:36:49.392Z,932.17
2016-12-22T03:37:17.214Z,932.14
2016-12-22T03:37:45.096Z,932.11
2016-12-22T03:38:12.922Z,932.14
2016-12-22T03:38:40.794Z,932.09
2016-12-22T03:39:08.733Z,932.13
2016-12-22T03:39:36.582Z,932.11
2016-12-22T03:40:04.385Z,932.1
2016-12-22T03:40:32.215Z,932.09
2016-12-22T03:41:00.051Z,932.1
2016-12-22T03:41:27.982Z,932.09
2016-12-22T03:41:55.838Z,932.09
2016-12-22T03:42:23.676Z,932.06
2016-12-22T03:42:51.528Z,932.03
2016-12-22T03:43:19.347Z,932.06
2016-12-22T03:43:47.176Z,932.03
2016-12-22T03:44:15.174Z,931.98
2016-12-22T03:44:43.034Z,931.99
2016-12-22T03:45:10.895Z,932
2016-12-22T03:45:38.727Z,931.99
2016-12-22T03:46:06.554Z,931.99
2016-12-22T03:46:34.345Z,931.99
2016-12-22T03:47:02.217Z,931.98
2016-12-22T03:47:30.089Z,931.97
2016-12-22T03:47:57.869Z,932
2016-12-22T03:48:25.707Z,932.02
2016-12-22T03:48:53.528Z,932.01
2016-12-22T03:49:21.523Z,932.06
2016-12-22T03:49:49.354Z,932.05
2016-12-22T03:50:17.210Z,932.04
2016-12-22T03:50:45.049Z,932.07
2016-12-22T03:51:12.831Z,932.07
2016-12-22T03:51:40.653Z,932.07
2016-12-22T03:52:08.491Z,932.03
2016-12-22T03:52:36.287Z,932.06
2016-12-22T03:53:04.133Z,932.03
2016-12-22T03:53:31.957Z,932.02
2016-12-22T03:53:59.801Z,932.01
2016-12-22T03:54:27.804Z,932.03
2016-12-22T03:54:55.608Z,932.01
2016-12-22T03:55:23.505Z,931.98
2016-12-22T03:55:51.301Z,931.97
2016-12-22T03:56:19.165Z,931.95
2016-12-22T03:56:47.002Z,931.92
2016-12-22T03:57:14.852Z,931.91
2016-12-22T03:57:42.723Z,931.93
2016-12-22T03:58:10.545Z,931.9
2016-12-22T03:58:38.443Z,931.89
2016-12-22T03:59:06.312Z,931.88
2016-12-22T03:59:34.269Z,931.89
2016-12-22T04:00:02.085Z,931.87
2016-12-22T04:00:29.858Z,931.88
2016-12-22T04:00:57.677Z,931.87
2016-12-22T04:01:25.468Z,931.9
2016-12-22T04:01:53.315Z,931.91
2016-12-22T04:02:21.098Z,931.87
2016-12-22T04:02:48.915Z,931.87
2016-12-22T04:03:16.766Z,931.83
2016-12-22T04:03:44.581Z,931.83
2016-12-22T04:04:12.400Z,931.83
2016-12-22T04:04:40.370Z,931.82
2016-12-22T04:05:08.226Z,931.78
2016-12-22T04:05:36.025Z,931.79
2016-12-22T04:06:03.836Z,931.79
2016-12-22T04:06:31.695Z,931.82
2016-12-22T04:06:59.529Z,931.8
2016-12-22T04:07:27.297Z,931.79
2016-12-22T04:07:55.138Z,931.76
2016-12-22T04:08:22.995Z,931.76
2016-12-22T04:08:50.917Z,931.77
2016-12-22T04:09:18.750Z,931.74
2016-12-22T04:09:46.715Z,931.73
2016-12-22T04:10:14.544Z,931.7
2016-12-22T04:10:42.410Z,931.71
2016-12-22T04:11:10.248Z,931.69
2016-12-22T04:11:38.079Z,931.68
2016-12-22T04:12:05.861Z,931.66
2016-12-22T04:12:33.750Z,931.63
2016-12-22T04:13:01.566Z,931.59
2016-12-22T04:13:29.461Z,931.61
2016-12-22T04:13:57.268Z,931.64
2016-12-22T04:14:25.097Z,931.61
2016-12-22T04:14:53.014Z,931.61
2016-12-22T04:15:20.942Z,931.57
2016-12-22T04:15:48.762Z,931.55
2016-12-22T04:16:16.643Z,931.49
2016-12-22T04:16:44.459Z,931.52
2016-12-22T04:17:12.372Z,931.5
2016-12-22T04:17:40.200Z,931.47
2016-12-22T04:18:08.019Z,931.46
2016-12-22T04:18:35.861Z,931.45
2016-12-22T04:19:03.706Z,931.42
2016-12-22T04:19:31.592Z,931.39
2016-12-22T04:19:59.426Z,931.38
2016-12-22T04:20:27.243Z,931.36
2016-12-22T04:20:55.071Z,931.37
2016-12-22T04:21:22.891Z,931.31
2016-12-22T04:21:50.712Z,931.32
2016-12-22T04:22:18.568Z,931.33
2016-12-22T04:22:46.415Z,931.28
2016-12-22T04:23:14.277Z,931.27
2016-12-22T04:23:42.094Z,931.27
2016-12-22T04:24:09.932Z,931.25
2016-12-22T04:24:37.877Z,931.24
2016-12-22T04:25:05.704Z,931.22
2016-12-22T04:25:33.549Z,931.22
2016-12-22T04:26:01.384Z,931.2
2016-12-22T04:26:29.238Z,931.15
2016-12-22T04:26:57.095Z,931.18
2016-12-22T04:27:25.032Z,931.15
2016-12-22T04:27:52.894Z,931.14
2016-12-22T04:28:20.709Z,931.13
2016-12-22T04:28:48.568Z,931.14
2016-12-22T04:29:16.399Z,931.12
2016-12-22T04:29:44.377Z,931.12
2016-12-22T04:30:12.181Z,931.11
2016-12-22T04:30:39.998Z,931.13
2016-12-22T04:31:07.813Z,931.14
2016-12-22T04:31:35.633Z,931.09
2016-12-22T04:32:03.504Z,931.1
2016-12-22T04:32:31.509Z,931.09
2016-12-22T04:32:59.336Z,931.06
2016-12-22T04:33:27.174Z,931.08
2016-12-22T04:33:54.982Z,931.06
2016-12-22T04:34:22.850Z,931.05
2016-12-22T04:34:50.771Z,931.04
2016-12-22T04:35:18.582Z,931.03
2016-12-22T04:35:46.448Z,931.05
2016-12-22T04:36:14.313Z,931.03
2016-12-22T04:36:42.149Z,931.02
2016-12-22T04:37:09.934Z,931.01
2016-12-22T04:37:37.802Z,930.99
2016-12-22T04:38:05.583Z,930.98
2016-12-22T04:38:33.432Z,930.98
2016-12-22T04:39:01.322Z,930.99
2016-12-22T04:39:29.198Z,930.98
2016-12-22T04:39:57.137Z,930.98
2016-12-22T04:40:24.980Z,930.99
2016-12-22T04:40:52.813Z,931.02
2016-12-22T04:41:20.681Z,931
2016-12-22T04:41:48.478Z,931
2016-12-22T04:42:16.294Z,931.01
2016-12-22T04:42:44.076Z,931.01
2016-12-22T04:43:11.934Z,931.03
2016-12-22T04:43:39.753Z,931.01
2016-12-22T04:44:07.617Z,931.01
2016-12-22T04:44:35.459Z,930.98
2016-12-22T04:45:03.380Z,930.96
2016-12-22T04:45:31.223Z,930.95
2016-12-22T04:45:59.044Z,930.96
2016-12-22T04:46:26.877Z,930.9
2016-12-22T04:46:54.681Z,930.95
2016-12-22T04:47:22.560Z,930.9
2016-12-22T04:47:50.403Z,930.93
2016-12-22T04:48:18.291Z,930.88
2016-12-22T04:48:46.124Z,930.92
2016-12-22T04:49:13.959Z,930.89
2016-12-22T04:49:41.801Z,930.9
2016-12-22T04:50:09.703Z,930.93
2016-12-22T04:50:37.564Z,930.89
2016-12-22T04:51:05.376Z,930.85
2016-12-22T04:51:33.231Z,930.85
2016-12-22T04:52:01.011Z,930.9
2016-12-22T04:52:28.830Z,930.86
2016-12-22T04:52:56.667Z,930.87
2016-12-22T04:53:24.528Z,930.89
2016-12-22T04:53:52.335Z,930.9
2016-12-22T04:54:20.193Z,930.92
2016-12-22T04:54:48.023Z,930.89
2016-12-22T04:55:15.974Z,930.95
2016-12-22T04:55:43.795Z,930.91
2016-12-22T04:56:11.744Z,930.97
2016-12-22T04:56:39.627Z,930.94
2016-12-22T04:57:07.437Z,931
2016-12-22T04:57:35.287Z,930.95
2016-12-22T04:58:03.152Z,930.95
2016-12-22T04:58:30.975Z,930.91
2016-12-22T04:58:58.807Z,930.94
2016-12-22T04:59:26.640Z,930.94
2016-12-22T04:59:54.482Z,930.91
2016-12-22T05:00:22.433Z,930.95
2016-12-22T05:00:50.261Z,930.9
2016-12-22T05:01:18.144Z,930.9
2016-12-22T05:01:45.998Z,930.92
2016-12-22T05:02:13.876Z,930.9
2016-12-22T05:02:41.698Z,930.83
2016-12-22T05:03:09.573Z,930.87
2016-12-22T05:03:37.356Z,930.84
2016-12-22T05:04:05.160Z,930.83
2016-12-22T05:04:33.016Z,930.84
2016-12-22T05:05:00.865Z,930.81
2016-12-22T05:05:28.812Z,930.82
2016-12-22T05:05:56.607Z,930.84
2016-12-22T05:06:24.433Z,930.8
2016-12-22T05:06:52.279Z,930.79
2016-12-22T05:07:20.117Z,930.83
2016-12-22T05:07:48.044Z,930.82
2016-12-22T05:08:15.874Z,930.85
2016-12-22T05:08:43.771Z,930.8
2016-12-22T05:09:11.617Z,930.82
2016-12-22T05:09:39.457Z,930.8
2016-12-22T05:10:07.313Z,930.79
2016-12-22T05:10:35.209Z,930.81
2016-12-22T05:11:03.046Z,930.78
2016-12-22T05:11:30.864Z,930.82
2016-12-22T05:11:58.698Z,930.79
2016-12-22T05:12:26.560Z,930.82
2016-12-22T05:12:54.359Z,930.78
2016-12-22T05:13:22.196Z,930.78
2016-12-22T05:13:49.989Z,930.76
2016-12-22T05:14:17.834Z,930.77
2016-12-22T05:14:45.734Z,930.75
2016-12-22T05:15:13.641Z,930.77
2016-12-22T05:15:41.427Z,930.77
2016-12-22T05:16:09.269Z,930.75
2016-12-22T05:16:37.054Z,930.74
2016-12-22T05:17:04.913Z,930.72
2016-12-22T05:17:32.715Z,930.72
2016-12-22T05:18:00.539Z,930.71
2016-12-22T05:18:28.346Z,930.7
2016-12-22T05:18:56.197Z,930.71
2016-12-22T05:19:24.020Z,930.69
2016-12-22T05:19:51.831Z,930.7
2016-12-22T05:20:19.769Z,930.68
2016-12-22T05:20:47.585Z,930.66
2016-12-22T05:21:15.432Z,930.64
2016-12-22T05:21:43.383Z,930.63
2016-12-22T05:22:11.293Z,930.61
2016-12-22T05:22:39.092Z,930.6
2016-12-22T05:23:06.920Z,930.57
2016-12-22T05:23:34.778Z,930.58
2016-12-22T05:24:02.595Z,930.62
2016-12-22T05:24:30.458Z,930.61
2016-12-22T05:24:58.266Z,930.6
2016-12-22T05:25:26.219Z,930.58
2016-12-22T05:25:54.014Z,930.64
2016-12-22T05:26:21.867Z,930.61
2016-12-22T05:26:49.704Z,930.64
2016-12-22T05:27:17.558Z,930.63
2016-12-22T05:27:45.369Z,930.61
2016-12-22T05:28:13.202Z,930.66
2016-12-22T05:28:41.039Z,930.68
2016-12-22T05:29:08.911Z,930.67
2016-12-22T05:29:36.759Z,930.63
2016-12-22T05:30:04.571Z,930.66
2016-12-22T05:30:32.614Z,930.64
2016-12-22T05:31:00.418Z,930.65
2016-12-22T05:31:28.255Z,930.64
2016-12-22T05:31:56.097Z,930.59
2016-12-22T05:32:23.909Z,930.68
2016-12-22T05:32:51.907Z,930.65
2016-12-22T05:33:19.760Z,930.63
2016-12-22T05:33:47.570Z,930.62
2016-12-22T05:34:15.400Z,930.64
2016-12-22T05:34:43.179Z,930.61
2016-12-22T05:35:10.948Z,930.63
2016-12-22T05:35:39.415Z,930.61
2016-12-22T05:36:07.213Z,930.61
2016-12-22T05:36:35.015Z,930.58
2016-12-22T05:37:02.862Z,930.61
2016-12-22T05:37:30.735Z,930.56
2016-12-22T05:37:58.530Z,930.59
2016-12-22T05:38:26.364Z,930.56
2016-12-22T05:38:54.205Z,930.57
2016-12-22T05:39:22.077Z,930.56
2016-12-22T05:39:49.899Z,930.56
2016-12-22T05:40:17.803Z,930.53
2016-12-22T05:40:45.719Z,930.54
2016-12-22T05:41:13.575Z,930.55
2016-12-22T05:41:41.434Z,930.55
2016-12-22T05:42:09.260Z,930.56
2016-12-22T05:42:37.082Z,930.55
2016-12-22T05:43:04.894Z,930.56
2016-12-22T05:43:32.711Z,930.54
2016-12-22T05:44:00.531Z,930.53
2016-12-22T05:44:28.365Z,930.54
2016-12-22T05:44:56.180Z,930.55
2016-12-22T05:45:24.061Z,930.53
2016-12-22T05:45:51.993Z,930.53
2016-12-22T05:46:19.951Z,930.57
2016-12-22T05:46:47.913Z,930.57
2016-12-22T05:47:15.795Z,930.59
2016-12-22T05:47:43.619Z,930.59
2016-12-22T05:48:11.478Z,930.61
2016-12-22T05:48:39.269Z,930.6